Hatsu Ethic — VQFS4 — position and weather

sailwx.info

Track history (hours):
 
Tides and Currents Weather Stations Pressure Air Temp Water Temp Dewpoint Dewpoint Depression Visibility Wind Speed Wind Dir Waves Ship Positions

Hatsu Ethic

Last reported at 2017-Oct-23 00:00 UTC. Time now 2017-Oct-23 04:27 UTC.
Position N 34°54' W 140°48'.

Type: Ship (hazmat cat D). MMSI: 235603000.

Wind from 180 at 20 knots

Barometer 1025.0 mb
Air temperature 23.0 ° C
Visibility: greater than 10.8 NM
Dewpoint 20.1 ° C
Water temperature 20.0 ° C

Date/timePositionNaut miles runAvg speedWind from/ knotsBaromVisibWave heightAir tempDewpointWater temp
2017-Oct-23 00:00N 34°54' W 140°48'16313.6 180 / 201025.010.8 23.020.120.0
2017-Oct-22 12:00N 35°12' W 137°30'25914.4 200 / 201027.010.8 21.019.518.0
2017-Oct-21 18:00N 33°42' W 132°36'15626.1 280 / 251026.010.8 19.012.416.0
2017-Oct-21 12:00N 35°54' W 130°54'22612.5 200 / 251025.010.8 18.016.418.0
2017-Oct-20 18:00N 36°30' W 126°18'16012.5 330 / 201022.010.8 16.010.814.0
2017-Oct-20 05:10N 37°31' W 123°13'212.2
2017-Oct-20 05:00N 37°32' W 123°10'612.5
2017-Oct-20 04:30N 37°35' W 123°03'712.7
2017-Oct-20 03:58N 37°38' W 122°56'612.8
2017-Oct-20 03:30N 37°42' W 122°50'612.8
2017-Oct-20 03:00N 37°46' W 122°43'4 8.5
2017-Oct-20 02:30N 37°46' W 122°38'4 8.2
2017-Oct-20 02:00N 37°47' W 122°33'611.8
2017-Oct-20 01:31N 37°49' W 122°26'5 9.2
2017-Oct-20 01:00N 37°49' W 122°20'0 0.0
2017-Oct-20 00:30N 37°49' W 122°20'0 0.0
2017-Oct-19 23:59N 37°49' W 122°20'0 0.0
2017-Oct-19 23:29N 37°49' W 122°20'0 0.0
2017-Oct-19 22:59N 37°49' W 122°20'0 0.0
2017-Oct-19 22:29N 37°49' W 122°20'0 0.0
2017-Oct-19 21:59N 37°49' W 122°20'0 0.0
2017-Oct-19 21:29N 37°49' W 122°20'0 0.0
2017-Oct-19 20:59N 37°49' W 122°20'0 0.0
2017-Oct-19 20:29N 37°49' W 122°20'0 0.0
2017-Oct-19 19:59N 37°49' W 122°20'0 0.0
2017-Oct-19 19:29N 37°49' W 122°20'0 0.0
2017-Oct-19 18:59N 37°49' W 122°20'0 0.0
2017-Oct-19 18:29N 37°49' W 122°20'0 0.0
2017-Oct-19 17:59N 37°49' W 122°20'0 0.0
2017-Oct-19 17:29N 37°49' W 122°20'0 0.0
2017-Oct-19 16:59N 37°49' W 122°20'0 0.0
2017-Oct-19 16:29N 37°49' W 122°20'0 0.0
2017-Oct-19 15:59N 37°49' W 122°20'0 0.0
2017-Oct-19 15:29N 37°49' W 122°20'0 0.0
2017-Oct-19 14:59N 37°49' W 122°20'0 0.0
2017-Oct-19 14:29N 37°49' W 122°20'0 0.0
2017-Oct-19 13:59N 37°49' W 122°20'0 0.0
2017-Oct-19 13:29N 37°49' W 122°20'0 0.0
2017-Oct-19 12:59N 37°49' W 122°20'0 0.0
2017-Oct-19 12:29N 37°49' W 122°20'0 0.0
2017-Oct-19 11:59N 37°49' W 122°20'0 0.0
2017-Oct-19 11:29N 37°49' W 122°20'0 0.0
2017-Oct-19 10:59N 37°49' W 122°20'0 0.0
2017-Oct-19 10:29N 37°49' W 122°20'0 0.0
2017-Oct-19 09:59N 37°49' W 122°20'0 0.0
2017-Oct-19 09:29N 37°49' W 122°20'0 0.0
2017-Oct-19 08:59N 37°49' W 122°20'0 0.0
2017-Oct-19 08:29N 37°49' W 122°20'0 0.0
2017-Oct-19 07:59N 37°49' W 122°20'0 0.0
2017-Oct-19 07:29N 37°49' W 122°20'0 0.0
2017-Oct-19 06:59N 37°49' W 122°20'0 0.0
2017-Oct-19 06:29N 37°49' W 122°20'0 0.0
2017-Oct-19 05:59N 37°49' W 122°20'0 0.0
2017-Oct-19 05:29N 37°49' W 122°20'0 0.0
2017-Oct-19 04:59N 37°49' W 122°20'0 0.0
2017-Oct-19 04:29N 37°49' W 122°20'0 0.0
2017-Oct-19 03:59N 37°49' W 122°20'0 0.0
2017-Oct-19 03:29N 37°49' W 122°20'0 0.0
2017-Oct-19 02:59N 37°49' W 122°20'0 0.0
2017-Oct-19 02:29N 37°49' W 122°20'0 0.0
2017-Oct-19 01:59N 37°49' W 122°20'0 0.0
2017-Oct-19 01:29N 37°49' W 122°20'0 0.0
2017-Oct-19 00:59N 37°49' W 122°20'0 0.0
2017-Oct-19 00:29N 37°49' W 122°20'0 0.9
2017-Oct-19 00:01N 37°49' W 122°20'0 0.7
2017-Oct-18 23:31N 37°49' W 122°20'4 8.7
2017-Oct-18 23:00N 37°49' W 122°26'510.4
2017-Oct-18 22:31N 37°48' W 122°32'611.9
2017-Oct-18 22:01N 37°45' W 122°39'4 8.9
2017-Oct-18 21:31N 37°41' W 122°40'4 8.2
2017-Oct-18 21:01N 37°37' W 122°40'611.1
2017-Oct-18 20:31N 37°31' W 122°40'713.1
2017-Oct-18 20:01N 37°25' W 122°40'714.2
2017-Oct-18 19:30N 37°18' W 122°39'714.3
2017-Oct-18 19:00N 37°11' W 122°40'917.4
2017-Oct-18 18:30N 37°02' W 122°37'1020.3
2017-Oct-18 18:00N 36°53' W 122°32'1020.4
2017-Oct-18 17:30N 36°43' W 122°28'1020.7
2017-Oct-18 17:00N 36°34' W 122°23'1020.7
2017-Oct-18 16:30N 36°24' W 122°18'1020.7
2017-Oct-18 16:00N 36°14' W 122°13'1020.6
2017-Oct-18 15:30N 36°05' W 122°08'1020.2
2017-Oct-18 15:00N 35°56' W 122°02'2720.2
2017-Oct-18 13:40N 35°32' W 121°48'320.1
2017-Oct-18 13:30N 35°29' W 121°46'1020.0
2017-Oct-18 13:00N 35°20' W 121°40'1019.5
2017-Oct-18 12:30N 35°11' W 121°35'1019.8
2017-Oct-18 12:00N 35°02' W 121°30'1019.9
2017-Oct-18 11:31N 34°53' W 121°24'1020.2
2017-Oct-18 11:00N 34°45' W 121°18'1020.3
2017-Oct-18 10:31N 34°36' W 121°11'1019.4
2017-Oct-18 10:00N 34°29' W 121°02'919.3
2017-Oct-18 09:30N 34°26' W 120°52'1019.7
2017-Oct-18 08:59N 34°23' W 120°40'919.3
2017-Oct-18 08:30N 34°21' W 120°29'1019.9
2017-Oct-18 07:59N 34°18' W 120°17'1120.3
2017-Oct-18 07:28N 34°16' W 120°04'920.7
2017-Oct-18 07:00N 34°13' W 119°53'1120.6
2017-Oct-18 06:28N 34°10' W 119°40'1020.4
2017-Oct-18 06:00N 34°07' W 119°29'919.3
2017-Oct-18 05:30N 34°05' W 119°18'817.0
2017-Oct-18 05:00N 34°01' W 119°09'714.2
2017-Oct-18 04:29N 33°57' W 119°01'611.7
2017-Oct-18 04:00N 33°55' W 118°55'611.5
2017-Oct-18 03:30N 33°52' W 118°49'711.8
2017-Oct-18 02:55N 33°48' W 118°42'611.8
2017-Oct-18 02:22N 33°45' W 118°35'511.6
2017-Oct-18 01:58N 33°43' W 118°30'711.7
2017-Oct-18 01:23N 33°40' W 118°23'411.1
2017-Oct-18 00:59N 33°38' W 118°18'5 9.6
2017-Oct-18 00:30N 33°42' W 118°15'3 5.5
2017-Oct-18 00:00N 33°45' W 118°16'0 0.0
2017-Oct-17 23:30N 33°45' W 118°16'0 0.0
2017-Oct-17 19:32N 33°45' W 118°16'0 0.0
2017-Oct-17 19:26N 33°45' W 118°16'0 0.0
2017-Oct-17 18:38N 33°45' W 118°16'0 0.0
2017-Oct-17 18:14N 33°45' W 118°16'0 0.0
2017-Oct-17 17:56N 33°45' W 118°16'0 0.0
2017-Oct-17 17:26N 33°45' W 118°16'0 0.0
2017-Oct-17 16:56N 33°45' W 118°16'0 0.0
2017-Oct-17 02:56N 33°45' W 118°16'0 0.0
2017-Oct-16 23:38N 33°45' W 118°16'0 0.0
2017-Oct-16 23:08N 33°45' W 118°16'0 0.0
2017-Oct-16 22:56N 33°45' W 118°16'0 0.1
2017-Oct-16 22:20N 33°45' W 118°16'0 0.0
2017-Oct-16 21:50N 33°45' W 118°16'0 0.0
2017-Oct-16 21:20N 33°45' W 118°16'0 0.0
2017-Oct-16 20:56N 33°45' W 118°16'0 0.0
2017-Oct-16 20:20N 33°45' W 118°16'0 0.1
2017-Oct-16 19:56N 33°45' W 118°16'0 0.1
2017-Oct-16 19:26N 33°45' W 118°16'0 0.0
2017-Oct-16 18:56N 33°45' W 118°16'0 0.0
2017-Oct-16 18:20N 33°45' W 118°16'0 0.0
2017-Oct-16 17:56N 33°45' W 118°16'0 0.0
2017-Oct-16 16:50N 33°45' W 118°16'0 0.0
2017-Oct-16 16:14N 33°45' W 118°16'0 0.0
2017-Oct-16 08:56N 33°45' W 118°16'0 0.0
2017-Oct-16 06:44N 33°45' W 118°16'0 0.0
2017-Oct-16 06:26N 33°45' W 118°16'0 0.0
2017-Oct-16 04:59N 33°45' W 118°16'0 0.0
2017-Oct-16 04:29N 33°45' W 118°16'0 0.0
2017-Oct-16 03:53N 33°45' W 118°16'0 0.0
2017-Oct-16 03:26N 33°45' W 118°16'0 0.0
2017-Oct-16 02:59N 33°45' W 118°16'0 0.0
2017-Oct-16 02:29N 33°45' W 118°16'0 0.0
2017-Oct-16 01:59N 33°45' W 118°16'0 0.0
2017-Oct-16 01:23N 33°45' W 118°16'0 0.0
2017-Oct-16 00:59N 33°45' W 118°16'0 0.0
2017-Oct-16 00:11N 33°45' W 118°16'0 0.0
2017-Oct-15 23:53N 33°45' W 118°16'0 0.0
2017-Oct-15 23:23N 33°45' W 118°16'0 0.0
2017-Oct-15 22:47N 33°45' W 118°16'0 0.0
2017-Oct-15 22:23N 33°45' W 118°16'0 0.0
2017-Oct-15 21:53N 33°45' W 118°16'0 0.0
2017-Oct-15 21:29N 33°45' W 118°16'0 0.0
2017-Oct-15 20:59N 33°45' W 118°16'0 0.0
2017-Oct-15 20:29N 33°45' W 118°16'0 0.0
2017-Oct-15 19:59N 33°45' W 118°16'0 0.0
2017-Oct-15 19:30N 33°45' W 118°16'0 0.0
2017-Oct-15 19:00N 33°45' W 118°16'0 0.0
2017-Oct-15 18:30N 33°45' W 118°16'0 0.0
2017-Oct-15 18:00N 33°45' W 118°16'0 0.0
2017-Oct-15 17:30N 33°45' W 118°16'0 0.0
2017-Oct-15 17:00N 33°45' W 118°16'0 0.0
2017-Oct-15 16:30N 33°45' W 118°16'0 0.0
2017-Oct-15 16:00N 33°45' W 118°16'0 0.0
2017-Oct-15 15:30N 33°45' W 118°16'0 0.0
2017-Oct-15 14:59N 33°45' W 118°16'0 0.0
2017-Oct-15 14:00N 33°45' W 118°16'0 0.0
2017-Oct-15 13:30N 33°45' W 118°16'0 0.0
2017-Oct-15 13:00N 33°45' W 118°16'0 0.2
2017-Oct-15 12:30N 33°45' W 118°16'0 0.1
2017-Oct-15 12:00N 33°45' W 118°16'3 5.1
2017-Oct-15 11:30N 33°43' W 118°15'4 7.2
2017-Oct-15 11:00N 33°39' W 118°15'3 6.9
2017-Oct-15 10:30N 33°36' W 118°17'4 8.1
2017-Oct-15 10:00N 33°36' W 118°22'4 7.5
2017-Oct-15 09:30N 33°36' W 118°26'4 8.3
2017-Oct-15 09:00N 33°37' W 118°31'5 9.0
2017-Oct-15 08:30N 33°37' W 118°36'5 9.3
2017-Oct-15 08:00N 33°37' W 118°42'510.0
2017-Oct-15 07:30N 33°37' W 118°48'510.7
2017-Oct-15 07:00N 33°37' W 118°54'510.9
2017-Oct-15 06:30N 33°37' W 119°01'610.8
2017-Oct-15 06:00N 33°37' W 119°08'816.9
2017-Oct-15 05:30N 33°37' W 119°18'918.0
2017-Oct-15 05:00N 33°37' W 119°28'917.7
2017-Oct-15 04:30N 33°37' W 119°39'917.8
2017-Oct-15 04:00N 33°37' W 119°50'917.9
2017-Oct-15 03:30N 33°37' W 120°00'917.5
2017-Oct-15 03:00N 33°37' W 120°11'815.4
2017-Oct-15 02:30N 33°37' W 120°20'510.3
2017-Oct-15 02:00N 33°37' W 120°26'714.2
2017-Oct-15 01:30N 33°37' W 120°35'816.5
2017-Oct-15 01:00N 33°37' W 120°45'918.4
2017-Oct-15 00:30N 33°37' W 120°56'918.3
2017-Oct-15 00:00N 33°37' W 121°07'918.7
2017-Oct-14 23:31N 33°37' W 121°18'918.9
2017-Oct-14 23:00N 33°37' W 121°29'1018.5
2017-Oct-14 22:29N 33°37' W 121°41'918.6
2017-Oct-14 22:00N 33°37' W 121°52'1018.6
2017-Oct-14 21:30N 33°37' W 122°03'817.4
2017-Oct-14 21:00N 33°37' W 122°13'917.8
2017-Oct-14 20:30N 33°37' W 122°24'918.9
2017-Oct-14 20:00N 33°37' W 122°35'918.8
2017-Oct-14 19:30N 33°37' W 122°47'1418.5
2017-Oct-14 18:46N 33°37' W 123°03'618.5
2017-Oct-14 18:27N 33°37' W 123°10'3019.0
2017-Oct-14 16:51N 33°38' W 123°47'1019.0
2017-Oct-14 16:19N 33°38' W 123°59'718.5
2017-Oct-14 15:58N 33°38' W 124°07'1618.7
2017-Oct-14 15:05N 33°38' W 124°26'217.8
2017-Oct-14 15:00N 33°38' W 124°28'1017.6
2017-Oct-14 14:26N 33°41' W 124°40'1218.5
2017-Oct-14 13:48N 33°48' W 124°51'3318.2
2017-Oct-14 12:00N 34°06' W 125°24'22819.0 010 / 171022.0 2.2 13.013.012.0
2017-Oct-14 00:00N 36°18' W 129°12'23219.3 020 / 201028.010.8 16.012.718.0
2017-Oct-13 12:00N 38°30' W 133°12'   320 / 151032.010.8 16.012.718.0
Track history (hours):
 
Tides and Currents Weather Stations Pressure Air Temp Water Temp Dewpoint Dewpoint Depression Visibility Wind Speed Wind Dir Waves Ship Positions

Hatsu Ethic

Last reported at 2017-Oct-23 00:00 UTC. Time now 2017-Oct-23 04:27 UTC.
Position N 34°54' W 140°48'.

Type: Ship (hazmat cat D). MMSI: 235603000.

Wind from 180 at 20 knots

Barometer 1025.0 mb
Air temperature 23.0 ° C
Visibility: greater than 10.8 NM
Dewpoint 20.1 ° C
Water temperature 20.0 ° C

Date/timePositionNaut miles runAvg speedWind from/ knotsBaromVisibWave heightAir tempDewpointWater temp
2017-Oct-23 00:00N 34°54' W 140°48'16313.6 180 / 201025.010.8 23.020.120.0
2017-Oct-22 12:00N 35°12' W 137°30'25914.4 200 / 201027.010.8 21.019.518.0
2017-Oct-21 18:00N 33°42' W 132°36'15626.1 280 / 251026.010.8 19.012.416.0
2017-Oct-21 12:00N 35°54' W 130°54'22612.5 200 / 251025.010.8 18.016.418.0
2017-Oct-20 18:00N 36°30' W 126°18'16012.5 330 / 201022.010.8 16.010.814.0
2017-Oct-20 05:10N 37°31' W 123°13'212.2
2017-Oct-20 05:00N 37°32' W 123°10'612.5
2017-Oct-20 04:30N 37°35' W 123°03'712.7
2017-Oct-20 03:58N 37°38' W 122°56'612.8
2017-Oct-20 03:30N 37°42' W 122°50'612.8
2017-Oct-20 03:00N 37°46' W 122°43'4 8.5
2017-Oct-20 02:30N 37°46' W 122°38'4 8.2
2017-Oct-20 02:00N 37°47' W 122°33'611.8
2017-Oct-20 01:31N 37°49' W 122°26'5 9.2
2017-Oct-20 01:00N 37°49' W 122°20'0 0.0
2017-Oct-20 00:30N 37°49' W 122°20'0 0.0
2017-Oct-19 23:59N 37°49' W 122°20'0 0.0
2017-Oct-19 23:29N 37°49' W 122°20'0 0.0
2017-Oct-19 22:59N 37°49' W 122°20'0 0.0
2017-Oct-19 22:29N 37°49' W 122°20'0 0.0
2017-Oct-19 21:59N 37°49' W 122°20'0 0.0
2017-Oct-19 21:29N 37°49' W 122°20'0 0.0
2017-Oct-19 20:59N 37°49' W 122°20'0 0.0
2017-Oct-19 20:29N 37°49' W 122°20'0 0.0
2017-Oct-19 19:59N 37°49' W 122°20'0 0.0
2017-Oct-19 19:29N 37°49' W 122°20'0 0.0
2017-Oct-19 18:59N 37°49' W 122°20'0 0.0
2017-Oct-19 18:29N 37°49' W 122°20'0 0.0
2017-Oct-19 17:59N 37°49' W 122°20'0 0.0
2017-Oct-19 17:29N 37°49' W 122°20'0 0.0
2017-Oct-19 16:59N 37°49' W 122°20'0 0.0
2017-Oct-19 16:29N 37°49' W 122°20'0 0.0
2017-Oct-19 15:59N 37°49' W 122°20'0 0.0
2017-Oct-19 15:29N 37°49' W 122°20'0 0.0
2017-Oct-19 14:59N 37°49' W 122°20'0 0.0
2017-Oct-19 14:29N 37°49' W 122°20'0 0.0
2017-Oct-19 13:59N 37°49' W 122°20'0 0.0
2017-Oct-19 13:29N 37°49' W 122°20'0 0.0
2017-Oct-19 12:59N 37°49' W 122°20'0 0.0
2017-Oct-19 12:29N 37°49' W 122°20'0 0.0
2017-Oct-19 11:59N 37°49' W 122°20'0 0.0
2017-Oct-19 11:29N 37°49' W 122°20'0 0.0
2017-Oct-19 10:59N 37°49' W 122°20'0 0.0
2017-Oct-19 10:29N 37°49' W 122°20'0 0.0
2017-Oct-19 09:59N 37°49' W 122°20'0 0.0
2017-Oct-19 09:29N 37°49' W 122°20'0 0.0
2017-Oct-19 08:59N 37°49' W 122°20'0 0.0
2017-Oct-19 08:29N 37°49' W 122°20'0 0.0
2017-Oct-19 07:59N 37°49' W 122°20'0 0.0
2017-Oct-19 07:29N 37°49' W 122°20'0 0.0
2017-Oct-19 06:59N 37°49' W 122°20'0 0.0
2017-Oct-19 06:29N 37°49' W 122°20'0 0.0
2017-Oct-19 05:59N 37°49' W 122°20'0 0.0
2017-Oct-19 05:29N 37°49' W 122°20'0 0.0
2017-Oct-19 04:59N 37°49' W 122°20'0 0.0
2017-Oct-19 04:29N 37°49' W 122°20'0 0.0
2017-Oct-19 03:59N 37°49' W 122°20'0 0.0
2017-Oct-19 03:29N 37°49' W 122°20'0 0.0
2017-Oct-19 02:59N 37°49' W 122°20'0 0.0
2017-Oct-19 02:29N 37°49' W 122°20'0 0.0
2017-Oct-19 01:59N 37°49' W 122°20'0 0.0
2017-Oct-19 01:29N 37°49' W 122°20'0 0.0
2017-Oct-19 00:59N 37°49' W 122°20'0 0.0
2017-Oct-19 00:29N 37°49' W 122°20'0 0.9
2017-Oct-19 00:01N 37°49' W 122°20'0 0.7
2017-Oct-18 23:31N 37°49' W 122°20'4 8.7
2017-Oct-18 23:00N 37°49' W 122°26'510.4
2017-Oct-18 22:31N 37°48' W 122°32'611.9
2017-Oct-18 22:01N 37°45' W 122°39'4 8.9
2017-Oct-18 21:31N 37°41' W 122°40'4 8.2
2017-Oct-18 21:01N 37°37' W 122°40'611.1
2017-Oct-18 20:31N 37°31' W 122°40'713.1
2017-Oct-18 20:01N 37°25' W 122°40'714.2
2017-Oct-18 19:30N 37°18' W 122°39'714.3
2017-Oct-18 19:00N 37°11' W 122°40'917.4
2017-Oct-18 18:30N 37°02' W 122°37'1020.3
2017-Oct-18 18:00N 36°53' W 122°32'1020.4
2017-Oct-18 17:30N 36°43' W 122°28'1020.7
2017-Oct-18 17:00N 36°34' W 122°23'1020.7
2017-Oct-18 16:30N 36°24' W 122°18'1020.7
2017-Oct-18 16:00N 36°14' W 122°13'1020.6
2017-Oct-18 15:30N 36°05' W 122°08'1020.2
2017-Oct-18 15:00N 35°56' W 122°02'2720.2
2017-Oct-18 13:40N 35°32' W 121°48'320.1
2017-Oct-18 13:30N 35°29' W 121°46'1020.0
2017-Oct-18 13:00N 35°20' W 121°40'1019.5
2017-Oct-18 12:30N 35°11' W 121°35'1019.8
2017-Oct-18 12:00N 35°02' W 121°30'1019.9
2017-Oct-18 11:31N 34°53' W 121°24'1020.2
2017-Oct-18 11:00N 34°45' W 121°18'1020.3
2017-Oct-18 10:31N 34°36' W 121°11'1019.4
2017-Oct-18 10:00N 34°29' W 121°02'919.3
2017-Oct-18 09:30N 34°26' W 120°52'1019.7
2017-Oct-18 08:59N 34°23' W 120°40'919.3
2017-Oct-18 08:30N 34°21' W 120°29'1019.9
2017-Oct-18 07:59N 34°18' W 120°17'1120.3
2017-Oct-18 07:28N 34°16' W 120°04'920.7
2017-Oct-18 07:00N 34°13' W 119°53'1120.6
2017-Oct-18 06:28N 34°10' W 119°40'1020.4
2017-Oct-18 06:00N 34°07' W 119°29'919.3
2017-Oct-18 05:30N 34°05' W 119°18'817.0
2017-Oct-18 05:00N 34°01' W 119°09'714.2
2017-Oct-18 04:29N 33°57' W 119°01'611.7
2017-Oct-18 04:00N 33°55' W 118°55'611.5
2017-Oct-18 03:30N 33°52' W 118°49'711.8
2017-Oct-18 02:55N 33°48' W 118°42'611.8
2017-Oct-18 02:22N 33°45' W 118°35'511.6
2017-Oct-18 01:58N 33°43' W 118°30'711.7
2017-Oct-18 01:23N 33°40' W 118°23'411.1
2017-Oct-18 00:59N 33°38' W 118°18'5 9.6
2017-Oct-18 00:30N 33°42' W 118°15'3 5.5
2017-Oct-18 00:00N 33°45' W 118°16'0 0.0
2017-Oct-17 23:30N 33°45' W 118°16'0 0.0
2017-Oct-17 19:32N 33°45' W 118°16'0 0.0
2017-Oct-17 19:26N 33°45' W 118°16'0 0.0
2017-Oct-17 18:38N 33°45' W 118°16'0 0.0
2017-Oct-17 18:14N 33°45' W 118°16'0 0.0
2017-Oct-17 17:56N 33°45' W 118°16'0 0.0
2017-Oct-17 17:26N 33°45' W 118°16'0 0.0
2017-Oct-17 16:56N 33°45' W 118°16'0 0.0
2017-Oct-17 02:56N 33°45' W 118°16'0 0.0
2017-Oct-16 23:38N 33°45' W 118°16'0 0.0
2017-Oct-16 23:08N 33°45' W 118°16'0 0.0
2017-Oct-16 22:56N 33°45' W 118°16'0 0.1
2017-Oct-16 22:20N 33°45' W 118°16'0 0.0
2017-Oct-16 21:50N 33°45' W 118°16'0 0.0
2017-Oct-16 21:20N 33°45' W 118°16'0 0.0
2017-Oct-16 20:56N 33°45' W 118°16'0 0.0
2017-Oct-16 20:20N 33°45' W 118°16'0 0.1
2017-Oct-16 19:56N 33°45' W 118°16'0 0.1
2017-Oct-16 19:26N 33°45' W 118°16'0 0.0
2017-Oct-16 18:56N 33°45' W 118°16'0 0.0
2017-Oct-16 18:20N 33°45' W 118°16'0 0.0
2017-Oct-16 17:56N 33°45' W 118°16'0 0.0
2017-Oct-16 16:50N 33°45' W 118°16'0 0.0
2017-Oct-16 16:14N 33°45' W 118°16'0 0.0
2017-Oct-16 08:56N 33°45' W 118°16'0 0.0
2017-Oct-16 06:44N 33°45' W 118°16'0 0.0
2017-Oct-16 06:26N 33°45' W 118°16'0 0.0
2017-Oct-16 04:59N 33°45' W 118°16'0 0.0
2017-Oct-16 04:29N 33°45' W 118°16'0 0.0
2017-Oct-16 03:53N 33°45' W 118°16'0 0.0
2017-Oct-16 03:26N 33°45' W 118°16'0 0.0
2017-Oct-16 02:59N 33°45' W 118°16'0 0.0
2017-Oct-16 02:29N 33°45' W 118°16'0 0.0
2017-Oct-16 01:59N 33°45' W 118°16'0 0.0
2017-Oct-16 01:23N 33°45' W 118°16'0 0.0
2017-Oct-16 00:59N 33°45' W 118°16'0 0.0
2017-Oct-16 00:11N 33°45' W 118°16'0 0.0
2017-Oct-15 23:53N 33°45' W 118°16'0 0.0
2017-Oct-15 23:23N 33°45' W 118°16'0 0.0
2017-Oct-15 22:47N 33°45' W 118°16'0 0.0
2017-Oct-15 22:23N 33°45' W 118°16'0 0.0
2017-Oct-15 21:53N 33°45' W 118°16'0 0.0
2017-Oct-15 21:29N 33°45' W 118°16'0 0.0
2017-Oct-15 20:59N 33°45' W 118°16'0 0.0
2017-Oct-15 20:29N 33°45' W 118°16'0 0.0
2017-Oct-15 19:59N 33°45' W 118°16'0 0.0
2017-Oct-15 19:30N 33°45' W 118°16'0 0.0
2017-Oct-15 19:00N 33°45' W 118°16'0 0.0
2017-Oct-15 18:30N 33°45' W 118°16'0 0.0
2017-Oct-15 18:00N 33°45' W 118°16'0 0.0
2017-Oct-15 17:30N 33°45' W 118°16'0 0.0
2017-Oct-15 17:00N 33°45' W 118°16'0 0.0
2017-Oct-15 16:30N 33°45' W 118°16'0 0.0
2017-Oct-15 16:00N 33°45' W 118°16'0 0.0
2017-Oct-15 15:30N 33°45' W 118°16'0 0.0
2017-Oct-15 14:59N 33°45' W 118°16'0 0.0
2017-Oct-15 14:00N 33°45' W 118°16'0 0.0
2017-Oct-15 13:30N 33°45' W 118°16'0 0.0
2017-Oct-15 13:00N 33°45' W 118°16'0 0.2
2017-Oct-15 12:30N 33°45' W 118°16'0 0.1
2017-Oct-15 12:00N 33°45' W 118°16'3 5.1
2017-Oct-15 11:30N 33°43' W 118°15'4 7.2
2017-Oct-15 11:00N 33°39' W 118°15'3 6.9
2017-Oct-15 10:30N 33°36' W 118°17'4 8.1
2017-Oct-15 10:00N 33°36' W 118°22'4 7.5
2017-Oct-15 09:30N 33°36' W 118°26'4 8.3
2017-Oct-15 09:00N 33°37' W 118°31'5 9.0
2017-Oct-15 08:30N 33°37' W 118°36'5 9.3
2017-Oct-15 08:00N 33°37' W 118°42'510.0
2017-Oct-15 07:30N 33°37' W 118°48'510.7
2017-Oct-15 07:00N 33°37' W 118°54'510.9
2017-Oct-15 06:30N 33°37' W 119°01'610.8
2017-Oct-15 06:00N 33°37' W 119°08'816.9
2017-Oct-15 05:30N 33°37' W 119°18'918.0
2017-Oct-15 05:00N 33°37' W 119°28'917.7
2017-Oct-15 04:30N 33°37' W 119°39'917.8
2017-Oct-15 04:00N 33°37' W 119°50'917.9
2017-Oct-15 03:30N 33°37' W 120°00'917.5
2017-Oct-15 03:00N 33°37' W 120°11'815.4
2017-Oct-15 02:30N 33°37' W 120°20'510.3
2017-Oct-15 02:00N 33°37' W 120°26'714.2
2017-Oct-15 01:30N 33°37' W 120°35'816.5
2017-Oct-15 01:00N 33°37' W 120°45'918.4
2017-Oct-15 00:30N 33°37' W 120°56'918.3
2017-Oct-15 00:00N 33°37' W 121°07'918.7
2017-Oct-14 23:31N 33°37' W 121°18'918.9
2017-Oct-14 23:00N 33°37' W 121°29'1018.5
2017-Oct-14 22:29N 33°37' W 121°41'918.6
2017-Oct-14 22:00N 33°37' W 121°52'1018.6
2017-Oct-14 21:30N 33°37' W 122°03'817.4
2017-Oct-14 21:00N 33°37' W 122°13'917.8
2017-Oct-14 20:30N 33°37' W 122°24'918.9
2017-Oct-14 20:00N 33°37' W 122°35'918.8
2017-Oct-14 19:30N 33°37' W 122°47'1418.5
2017-Oct-14 18:46N 33°37' W 123°03'618.5
2017-Oct-14 18:27N 33°37' W 123°10'3019.0
2017-Oct-14 16:51N 33°38' W 123°47'1019.0
2017-Oct-14 16:19N 33°38' W 123°59'718.5
2017-Oct-14 15:58N 33°38' W 124°07'1618.7
2017-Oct-14 15:05N 33°38' W 124°26'217.8
2017-Oct-14 15:00N 33°38' W 124°28'1017.6
2017-Oct-14 14:26N 33°41' W 124°40'1218.5
2017-Oct-14 13:48N 33°48' W 124°51'3318.2
2017-Oct-14 12:00N 34°06' W 125°24'22819.0 010 / 171022.0 2.2 13.013.012.0
2017-Oct-14 00:00N 36°18' W 129°12'23219.3 020 / 201028.010.8 16.012.718.0
2017-Oct-13 12:00N 38°30' W 133°12'   320 / 151032.010.8 16.012.718.0

Dump ship's entire track history